GCTSLPMA

Guest
Details From GCTS - Tenerife Sur
To LPMA - Madeira
Flight Number -
Tags generated
Created
Modified
Stats Distance 281 nm / 521 km
Max Altitude 33,300 ft / 10,150 m
Waypoints 4
Social Downloads 3
Likes 0
Share

Download

Looking for another format? Having issues loading an existing format? Contact us
Advertisement - Login to hide

Notes

Basic altitude profile: - Ascent Rate: 3100ft/min - Ascent Speed: 250kts - Cruise Altitude: 3700ft - Cruise Speed: 500kts - Descent Rate: 2100ft/min - Descent Speed: 250kts Options: - Use NATs: yes - Use PACOTS: yes - Use low airways: no - Use high airways: yes

Route

GCTS BRICK UN728 ORTIS LPMA

ID Type Via Altitude (ft/m) Position (lat/lon) Dist (leg/tot) Name
O GCTS APT - 0 / 0 28.04448 / -16.57249 - / 0 nm Tenerife Sur
BRICK FIX - 33,300 / 10,150 29.59137 / -16.37289 93 / 93 nm
ORTIS FIX UN728 (AWY-HI) 24,500 / 7,468 31.40696 / -16.55691 109 / 202 nm
O LPMA APT - 0 / 0 32.69770 / -16.77445 78 / 281 nm Madeira

Altitude Profile

Advertisement - Login to hide

Weather


0- 5 10 15 20 25 30 35+ Temperature / °C

Clouds and Precipitation
Forecast for 2021-03-22 12:00 UTC. Updated 2 months ago

Ground ~20,000 ft ~40,000 ft Winds

GCTS

Details ICAO GCTS (TFS)
Name Tenerife Sur-Reina Sofía
Region Canary Islands
Timezone Atlantic/Canary (UTC+1.0)
Stats Elevation 209 ft / 64 m (AMSL)
Location 28.044500° -16.572500°
Runways 1
Magnetic Variation 4.722° W

METAR

GCTS 080730Z 05006KT 9999 SCT040 20/13 Q1018 NOSIG

Decode

TAF

TAF GCTS 080200Z 0803/0903 09009KT 9999 FEW035 TX25/0814Z TN17/0806Z TEMPO 0803/0815 27010KT

Decode

Departure Runways

ID Width Length Bearing (true/mag) Surface Threshold Overrun Markings Lighting
07 148 ft / 45 m 10,479 ft / 3,194 m 68.48° / 73.20° ASPHALT 0 ft / 0 m 0 ft / 0 m PREC-APP CENTERLINE EDGE THRESHOLD ALSF-II REIL-OMNI
25 148 ft / 45 m 10,479 ft / 3,194 m 248.50° / 253.22° ASPHALT 0 ft / 0 m 0 ft / 0 m PREC-APP CENTERLINE EDGE THRESHOLD ALSF-II REIL-OMNI

LPMA

Details ICAO LPMA (FNC)
Name Madeira/Funchal - Cristiano Ronaldo
Region Portugal
Timezone Atlantic/Madeira (UTC+1.0)
Stats Elevation 189 ft / 58 m (AMSL)
Location 32.697900° -16.774400°
Runways 1
Magnetic Variation 4.564° W

METAR

LPMA 080730Z 19003KT 150V250 9999 FEW016 18/10 Q1018

Decode

TAF

TAF LPMA 080500Z 0806/0906 35008KT 9999 FEW015 BKN030 TEMPO 0806/0820 SCT015 PROB40 0810/0818 22008KT BECMG 0820/0822 24012KT SCT012 BKN030 PROB30 TEMPO 0822/0902 5000 -RADZ BR SCT006 BKN012 BECMG 0902/0904 33010KT SCT014

Decode

Destination Runways

ID Width Length Bearing (true/mag) Surface Threshold Overrun Markings Lighting
05 148 ft / 45 m 9,133 ft / 2,784 m 44.60° / 49.16° ASPHALT 482 ft / 147 m 0 ft / 0 m PREC-APP CENTERLINE EDGE THRESHOLD TDZ REIL-OMNI
23 148 ft / 45 m 9,133 ft / 2,784 m 224.61° / 229.17° ASPHALT 482 ft / 147 m 0 ft / 0 m PREC-APP CENTERLINE EDGE THRESHOLD TDZ REIL-OMNI

Popular Alternatives